sensor_id;sensor_type;location;lat;lon;timestamp;pressure;altitude;pressure_sealevel;temperature;humidity
68891;BME280;55932;48.702;8.884;2023-12-20T00:07:39;96120;;;5.1;83
68891;BME280;55932;48.702;8.884;2023-12-20T00:10:14;96120;;;5.1;83
68891;BME280;55932;48.702;8.884;2023-12-20T00:12:50;96120;;;5.2;83
68891;BME280;55932;48.702;8.884;2023-12-20T00:15:11;96120;;;5.2;83
68891;BME280;55932;48.702;8.884;2023-12-20T00:17:47;96120;;;5.2;83
68891;BME280;55932;48.702;8.884;2023-12-20T00:20:12;96110;;;5.2;83
68891;BME280;55932;48.702;8.884;2023-12-20T00:22:43;96110;;;5.2;83
68891;BME280;55932;48.702;8.884;2023-12-20T00:27:44;96110;;;5.2;83
68891;BME280;55932;48.702;8.884;2023-12-20T00:30:14;96110;;;5.1;83
68891;BME280;55932;48.702;8.884;2023-12-20T00:32:56;96120;;;5;83
68891;BME280;55932;48.702;8.884;2023-12-20T00:35:26;96110;;;4.9;83
68891;BME280;55932;48.702;8.884;2023-12-20T00:37:56;96100;;;4.8;83
68891;BME280;55932;48.702;8.884;2023-12-20T00:40:26;96100;;;4.7;83
68891;BME280;55932;48.702;8.884;2023-12-20T00:42:56;96090;;;4.7;83
68891;BME280;55932;48.702;8.884;2023-12-20T00:45:35;96100;;;4.6;83
68891;BME280;55932;48.702;8.884;2023-12-20T00:48:05;96090;;;4.6;83
68891;BME280;55932;48.702;8.884;2023-12-20T00:52:45;96090;;;4.7;83
68891;BME280;55932;48.702;8.884;2023-12-20T00:55:16;96090;;;4.7;83
68891;BME280;55932;48.702;8.884;2023-12-20T00:57:46;96090;;;4.7;83
68891;BME280;55932;48.702;8.884;2023-12-20T01:00:17;96100;;;4.7;83
68891;BME280;55932;48.702;8.884;2023-12-20T01:02:47;96100;;;4.8;83
68891;BME280;55932;48.702;8.884;2023-12-20T01:10:30;96100;;;4.8;83
68891;BME280;55932;48.702;8.884;2023-12-20T01:13:00;96110;;;4.8;83
68891;BME280;55932;48.702;8.884;2023-12-20T01:15:30;96110;;;4.9;83
68891;BME280;55932;48.702;8.884;2023-12-20T01:18:00;96110;;;4.9;82.5
68891;BME280;55932;48.702;8.884;2023-12-20T01:23:12;96110;;;5;82
68891;BME280;55932;48.702;8.884;2023-12-20T01:28:12;96110;;;5;82
68891;BME280;55932;48.702;8.884;2023-12-20T01:30:53;96110;;;5;82
68891;BME280;55932;48.702;8.884;2023-12-20T01:33:23;96100;;;5;82
68891;BME280;55932;48.702;8.884;2023-12-20T01:35:45;96110;;;5;82
68891;BME280;55932;48.702;8.884;2023-12-20T01:38:15;96110;;;5;82
68891;BME280;55932;48.702;8.884;2023-12-20T01:40:46;96110;;;5;82.5
68891;BME280;55932;48.702;8.884;2023-12-20T01:43:07;96100;;;4.9;82.5
68891;BME280;55932;48.702;8.884;2023-12-20T01:45:35;96110;;;5;82.5
68891;BME280;55932;48.702;8.884;2023-12-20T01:48:05;96100;;;5;82.5
68891;BME280;55932;48.702;8.884;2023-12-20T01:50:44;96100;;;5;82.5
68891;BME280;55932;48.702;8.884;2023-12-20T01:55:35;96090;;;4.9;83
68891;BME280;55932;48.702;8.884;2023-12-20T01:58:06;96090;;;4.9;83
68891;BME280;55932;48.702;8.884;2023-12-20T02:00:36;96090;;;4.9;83
68891;BME280;55932;48.702;8.884;2023-12-20T02:03:05;96090;;;4.9;83
68891;BME280;55932;48.702;8.884;2023-12-20T02:05:35;96090;;;4.9;83
68891;BME280;55932;48.702;8.884;2023-12-20T02:08:06;96100;;;4.9;83
68891;BME280;55932;48.702;8.884;2023-12-20T02:10:35;96110;;;5;83
68891;BME280;55932;48.702;8.884;2023-12-20T02:13:06;96110;;;5;83
68891;BME280;55932;48.702;8.884;2023-12-20T02:18:16;96100;;;5;83
68891;BME280;55932;48.702;8.884;2023-12-20T02:23:27;96100;;;4.9;83
68891;BME280;55932;48.702;8.884;2023-12-20T02:25:49;96100;;;4.9;83
68891;BME280;55932;48.702;8.884;2023-12-20T02:30:38;96100;;;4.9;83
68891;BME280;55932;48.702;8.884;2023-12-20T02:33:10;96100;;;4.9;83
68891;BME280;55932;48.702;8.884;2023-12-20T02:35:38;96100;;;4.9;83
68891;BME280;55932;48.702;8.884;2023-12-20T02:40:28;96100;;;4.9;83
68891;BME280;55932;48.702;8.884;2023-12-20T02:42:58;96100;;;4.8;83
68891;BME280;55932;48.702;8.884;2023-12-20T02:45:29;96100;;;4.9;83
68891;BME280;55932;48.702;8.884;2023-12-20T02:47:59;96100;;;4.9;83
68891;BME280;55932;48.702;8.884;2023-12-20T02:50:30;96100;;;4.9;83
68891;BME280;55932;48.702;8.884;2023-12-20T02:53:00;96110;;;5;82.5
68891;BME280;55932;48.702;8.884;2023-12-20T02:55:31;96110;;;5;82.5
68891;BME280;55932;48.702;8.884;2023-12-20T02:58:02;96110;;;5;82
68891;BME280;55932;48.702;8.884;2023-12-20T03:05:34;96120;;;4.9;82
68891;BME280;55932;48.702;8.884;2023-12-20T03:13:15;96120;;;4.8;82
68891;BME280;55932;48.702;8.884;2023-12-20T03:15:45;96130;;;4.8;82
68891;BME280;55932;48.702;8.884;2023-12-20T03:18:15;96130;;;4.7;82
68891;BME280;55932;48.702;8.884;2023-12-20T03:20:57;96130;;;4.7;82
68891;BME280;55932;48.702;8.884;2023-12-20T03:23:29;96130;;;4.6;82
68891;BME280;55932;48.702;8.884;2023-12-20T03:25:59;96130;;;4.7;82
68891;BME280;55932;48.702;8.884;2023-12-20T03:30:48;96140;;;4.5;82
68891;BME280;55932;48.702;8.884;2023-12-20T03:33:28;96140;;;4.5;81.5
68891;BME280;55932;48.702;8.884;2023-12-20T03:38:18;96140;;;4.4;82
68891;BME280;55932;48.702;8.884;2023-12-20T03:40:48;96150;;;4.4;82
68891;BME280;55932;48.702;8.884;2023-12-20T03:43:18;96150;;;4.3;82
68891;BME280;55932;48.702;8.884;2023-12-20T03:45:49;96150;;;4.3;82
68891;BME280;55932;48.702;8.884;2023-12-20T03:48:19;96150;;;4.3;82
68891;BME280;55932;48.702;8.884;2023-12-20T03:50:49;96150;;;4.2;82
68891;BME280;55932;48.702;8.884;2023-12-20T03:53:19;96150;;;4.2;82
68891;BME280;55932;48.702;8.884;2023-12-20T03:58:28;96160;;;4.1;82
68891;BME280;55932;48.702;8.884;2023-12-20T04:03:20;96160;;;4.1;82
68891;BME280;55932;48.702;8.884;2023-12-20T04:05:50;96160;;;4;82
68891;BME280;55932;48.702;8.884;2023-12-20T04:08:20;96160;;;4;82
68891;BME280;55932;48.702;8.884;2023-12-20T04:10:50;96150;;;4;82
68891;BME280;55932;48.702;8.884;2023-12-20T04:13:20;96140;;;4;82
68891;BME280;55932;48.702;8.884;2023-12-20T04:15:50;96150;;;4;82
68891;BME280;55932;48.702;8.884;2023-12-20T04:25:40;96160;;;4;82
68891;BME280;55932;48.702;8.884;2023-12-20T04:28:42;96170;;;4;82
68891;BME280;55932;48.702;8.884;2023-12-20T04:31:13;96170;;;4;82
68891;BME280;55932;48.702;8.884;2023-12-20T04:33:35;96160;;;4;82
68891;BME280;55932;48.702;8.884;2023-12-20T04:36:05;96160;;;4;82
68891;BME280;55932;48.702;8.884;2023-12-20T04:40:55;96180;;;4;82
68891;BME280;55932;48.702;8.884;2023-12-20T04:43:25;96190;;;3.9;82.5
68891;BME280;55932;48.702;8.884;2023-12-20T04:45:55;96190;;;3.9;82.5
68891;BME280;55932;48.702;8.884;2023-12-20T04:48:25;96190;;;3.9;82.5
68891;BME280;55932;48.702;8.884;2023-12-20T04:51:05;96180;;;4;82.5
68891;BME280;55932;48.702;8.884;2023-12-20T04:55:45;96190;;;4;82.5
68891;BME280;55932;48.702;8.884;2023-12-20T04:58:16;96190;;;4;82.5
68891;BME280;55932;48.702;8.884;2023-12-20T05:00:46;96190;;;4;83
68891;BME280;55932;48.702;8.884;2023-12-20T05:05:47;96200;;;4;83
68891;BME280;55932;48.702;8.884;2023-12-20T05:08:17;96190;;;4;82.5
68891;BME280;55932;48.702;8.884;2023-12-20T05:11:11;96200;;;4;82.5
68891;BME280;55932;48.702;8.884;2023-12-20T05:13:41;96210;;;4;82.5
68891;BME280;55932;48.702;8.884;2023-12-20T05:16:12;96210;;;4;82.5
68891;BME280;55932;48.702;8.884;2023-12-20T05:18:40;96210;;;4;82.5
68891;BME280;55932;48.702;8.884;2023-12-20T05:21:01;96220;;;4.1;82.5
68891;BME280;55932;48.702;8.884;2023-12-20T05:23:31;96220;;;4.1;82.5
68891;BME280;55932;48.702;8.884;2023-12-20T05:26:01;96210;;;4.1;82.5
68891;BME280;55932;48.702;8.884;2023-12-20T05:28:32;96210;;;4.1;82.5
68891;BME280;55932;48.702;8.884;2023-12-20T05:30:51;96230;;;4.1;82.5
68891;BME280;55932;48.702;8.884;2023-12-20T05:33:21;96230;;;4.1;82.5
68891;BME280;55932;48.702;8.884;2023-12-20T05:35:52;96230;;;4.1;82.5
68891;BME280;55932;48.702;8.884;2023-12-20T05:43:23;96240;;;4.1;82.5
68891;BME280;55932;48.702;8.884;2023-12-20T05:45:54;96240;;;4.1;82.5
68891;BME280;55932;48.702;8.884;2023-12-20T05:48:37;96240;;;4.1;82.5
68891;BME280;55932;48.702;8.884;2023-12-20T05:51:06;96250;;;4.1;82.5
68891;BME280;55932;48.702;8.884;2023-12-20T05:53:37;96250;;;4.1;82.5
68891;BME280;55932;48.702;8.884;2023-12-20T05:56:08;96250;;;4.1;82.5
68891;BME280;55932;48.702;8.884;2023-12-20T05:58:38;96250;;;4.1;82.5
68891;BME280;55932;48.702;8.884;2023-12-20T06:01:08;96250;;;4.1;82
68891;BME280;55932;48.702;8.884;2023-12-20T06:03:27;96260;;;4.2;82
68891;BME280;55932;48.702;8.884;2023-12-20T06:05:58;96270;;;4.2;81.5
68891;BME280;55932;48.702;8.884;2023-12-20T06:08:28;96270;;;4.3;81.5
68891;BME280;55932;48.702;8.884;2023-12-20T06:16:00;96270;;;4.3;81.5
68891;BME280;55932;48.702;8.884;2023-12-20T06:18:31;96270;;;4.3;81.5
68891;BME280;55932;48.702;8.884;2023-12-20T06:21:12;96270;;;4.3;81.5
68891;BME280;55932;48.702;8.884;2023-12-20T06:23:42;96270;;;4.3;81.5
68891;BME280;55932;48.702;8.884;2023-12-20T06:26:13;96270;;;4.3;81.5
68891;BME280;55932;48.702;8.884;2023-12-20T06:28:44;96280;;;4.3;81.5
68891;BME280;55932;48.702;8.884;2023-12-20T06:31:15;96280;;;4.3;81.5
68891;BME280;55932;48.702;8.884;2023-12-20T06:33:44;96280;;;4.3;81.5
68891;BME280;55932;48.702;8.884;2023-12-20T06:43:35;96270;;;4.3;81.5
68891;BME280;55932;48.702;8.884;2023-12-20T06:46:06;96270;;;4.3;81.5
68891;BME280;55932;48.702;8.884;2023-12-20T06:48:37;96280;;;4.3;81.5
68891;BME280;55932;48.702;8.884;2023-12-20T06:51:10;96290;;;4.3;81.5
68891;BME280;55932;48.702;8.884;2023-12-20T06:53:37;96290;;;4.4;81.5
68891;BME280;55932;48.702;8.884;2023-12-20T06:56:08;96300;;;4.4;81.5
68891;BME280;55932;48.702;8.884;2023-12-20T06:58:49;96300;;;4.4;81.5
68891;BME280;55932;48.702;8.884;2023-12-20T07:01:20;96300;;;4.4;81.5
68891;BME280;55932;48.702;8.884;2023-12-20T07:03:51;96310;;;4.4;82
68891;BME280;55932;48.702;8.884;2023-12-20T07:06:31;96310;;;4.4;82
68891;BME280;55932;48.702;8.884;2023-12-20T07:08:59;96310;;;4.3;82
68891;BME280;55932;48.702;8.884;2023-12-20T07:11:29;96310;;;4.3;82
68891;BME280;55932;48.702;8.884;2023-12-20T07:13:50;96320;;;4.3;82
68891;BME280;55932;48.702;8.884;2023-12-20T07:18:39;96330;;;4.4;82
68891;BME280;55932;48.702;8.884;2023-12-20T07:21:09;96350;;;4.4;82
68891;BME280;55932;48.702;8.884;2023-12-20T07:23:40;96350;;;4.4;82
68891;BME280;55932;48.702;8.884;2023-12-20T07:26:10;96350;;;4.4;82
68891;BME280;55932;48.702;8.884;2023-12-20T07:33:42;96360;;;4.4;81
68891;BME280;55932;48.702;8.884;2023-12-20T07:41:24;96360;;;4.3;81
68891;BME280;55932;48.702;8.884;2023-12-20T07:43:55;96350;;;4.3;81.5
68891;BME280;55932;48.702;8.884;2023-12-20T07:46:24;96360;;;4.3;81.5
68891;BME280;55932;48.702;8.884;2023-12-20T07:49:25;96370;;;4.4;81
68891;BME280;55932;48.702;8.884;2023-12-20T07:51:37;96370;;;4.4;81
68891;BME280;55932;48.702;8.884;2023-12-20T07:54:08;96370;;;4.4;81
68891;BME280;55932;48.702;8.884;2023-12-20T07:56:38;96360;;;4.3;81
68891;BME280;55932;48.702;8.884;2023-12-20T07:58:57;96360;;;4.4;81
68891;BME280;55932;48.702;8.884;2023-12-20T08:01:36;96370;;;4.4;81
68891;BME280;55932;48.702;8.884;2023-12-20T08:04:07;96370;;;4.4;81
68891;BME280;55932;48.702;8.884;2023-12-20T08:06:30;96360;;;4.5;81
68891;BME280;55932;48.702;8.884;2023-12-20T08:08:58;96360;;;4.5;81
68891;BME280;55932;48.702;8.884;2023-12-20T08:11:28;96370;;;4.5;81
68891;BME280;55932;48.702;8.884;2023-12-20T08:13:58;96370;;;4.6;81
68891;BME280;55932;48.702;8.884;2023-12-20T08:16:28;96380;;;4.5;81
68891;BME280;55932;48.702;8.884;2023-12-20T08:18:47;96380;;;4.4;81
68891;BME280;55932;48.702;8.884;2023-12-20T08:26:19;96390;;;4.2;81
68891;BME280;55932;48.702;8.884;2023-12-20T08:28:48;96390;;;4.2;81
68891;BME280;55932;48.702;8.884;2023-12-20T08:31:19;96390;;;4.1;81
68891;BME280;55932;48.702;8.884;2023-12-20T08:33:49;96400;;;4.1;81
68891;BME280;55932;48.702;8.884;2023-12-20T08:36:20;96400;;;3.9;81
68891;BME280;55932;48.702;8.884;2023-12-20T08:39:02;96390;;;3.5;81
68891;BME280;55932;48.702;8.884;2023-12-20T08:41:32;96400;;;3.3;81
68891;BME280;55932;48.702;8.884;2023-12-20T08:44:02;96400;;;3.4;81
68891;BME280;55932;48.702;8.884;2023-12-20T08:46:33;96410;;;3.3;81
68891;BME280;55932;48.702;8.884;2023-12-20T08:49:02;96410;;;3.3;81
68891;BME280;55932;48.702;8.884;2023-12-20T08:51:22;96430;;;3.2;81
68891;BME280;55932;48.702;8.884;2023-12-20T08:53:55;96440;;;3.1;81
68891;BME280;55932;48.702;8.884;2023-12-20T08:56:23;96430;;;3;81
68891;BME280;55932;48.702;8.884;2023-12-20T08:58:54;96420;;;2.9;81
68891;BME280;55932;48.702;8.884;2023-12-20T09:01:24;96420;;;3.5;81
68891;BME280;55932;48.702;8.884;2023-12-20T09:03:54;96420;;;5;81
68891;BME280;55932;48.702;8.884;2023-12-20T09:06:25;96420;;;6.2;80
68891;BME280;55932;48.702;8.884;2023-12-20T09:08:55;96400;;;7;79
68891;BME280;55932;48.702;8.884;2023-12-20T09:11:26;96400;;;7.4;77.5
68891;BME280;55932;48.702;8.884;2023-12-20T09:18:57;96390;;;8.2;77
68891;BME280;55932;48.702;8.884;2023-12-20T09:24:10;96390;;;8.6;76
68891;BME280;55932;48.702;8.884;2023-12-20T09:26:40;96390;;;9;76
68891;BME280;55932;48.702;8.884;2023-12-20T09:29:09;96400;;;9.6;75.5
68891;BME280;55932;48.702;8.884;2023-12-20T09:31:40;96400;;;9.6;75
68891;BME280;55932;48.702;8.884;2023-12-20T09:33:59;96400;;;9.4;75
68891;BME280;55932;48.702;8.884;2023-12-20T09:36:30;96410;;;9.4;75
68891;BME280;55932;48.702;8.884;2023-12-20T09:44:02;96410;;;10.3;75.5
68891;BME280;55932;48.702;8.884;2023-12-20T09:46:32;96410;;;10.9;74
68891;BME280;55932;48.702;8.884;2023-12-20T09:49:03;96420;;;10.7;74
68891;BME280;55932;48.702;8.884;2023-12-20T09:51:44;96420;;;11.2;74
68891;BME280;55932;48.702;8.884;2023-12-20T09:56:44;96420;;;10.9;73.5
68891;BME280;55932;48.702;8.884;2023-12-20T09:59:14;96430;;;9.5;74
68891;BME280;55932;48.702;8.884;2023-12-20T10:04:36;96430;;;7.1;77
68891;BME280;55932;48.702;8.884;2023-12-20T10:07:01;96430;;;6.6;77.5
68891;BME280;55932;48.702;8.884;2023-12-20T10:09:28;96430;;;6.3;78.5
68891;BME280;55932;48.702;8.884;2023-12-20T10:11:58;96430;;;6.2;79
68891;BME280;55932;48.702;8.884;2023-12-20T10:14:28;96430;;;6;79
68891;BME280;55932;48.702;8.884;2023-12-20T10:17:08;96420;;;5.8;79.5
68891;BME280;55932;48.702;8.884;2023-12-20T10:39:05;96380;;;6.4;81.5
68891;BME280;55932;48.702;8.884;2023-12-20T10:41:35;96380;;;6.7;80
68891;BME280;55932;48.702;8.884;2023-12-20T10:44:06;96380;;;6.5;80.5
68891;BME280;55932;48.702;8.884;2023-12-20T10:46:37;96380;;;6.2;80.5
68891;BME280;55932;48.702;8.884;2023-12-20T10:49:08;96390;;;5.9;81.5
68891;BME280;55932;48.702;8.884;2023-12-20T10:51:38;96400;;;5.9;82
68891;BME280;55932;48.702;8.884;2023-12-20T10:54:10;96380;;;5.8;82
68891;BME280;55932;48.702;8.884;2023-12-20T11:01:41;96380;;;5.7;82.5
68891;BME280;55932;48.702;8.884;2023-12-20T11:06:48;96390;;;5.7;82.5
68891;BME280;55932;48.702;8.884;2023-12-20T11:11:51;96390;;;5.5;83
68891;BME280;55932;48.702;8.884;2023-12-20T11:19:17;96390;;;5;83.5
68891;BME280;55932;48.702;8.884;2023-12-20T11:26:49;96390;;;5.1;83.5
68891;BME280;55932;48.702;8.884;2023-12-20T11:31:51;96380;;;5.2;83.5
68891;BME280;55932;48.702;8.884;2023-12-20T11:34:21;96380;;;5.2;83.5
68891;BME280;55932;48.702;8.884;2023-12-20T11:37:00;96370;;;5.1;83.5
68891;BME280;55932;48.702;8.884;2023-12-20T11:39:36;96380;;;5.1;83.5
68891;BME280;55932;48.702;8.884;2023-12-20T11:42:07;96370;;;5.1;83.5
68891;BME280;55932;48.702;8.884;2023-12-20T11:44:37;96380;;;5;83.5
68891;BME280;55932;48.702;8.884;2023-12-20T11:49:39;96390;;;4.8;84
68891;BME280;55932;48.702;8.884;2023-12-20T11:54:33;96380;;;4.8;84
68891;BME280;55932;48.702;8.884;2023-12-20T11:57:04;96370;;;4.9;84
68891;BME280;55932;48.702;8.884;2023-12-20T11:59:37;96370;;;5;83.5
68891;BME280;55932;48.702;8.884;2023-12-20T12:04:43;96370;;;5.3;83.5
68891;BME280;55932;48.702;8.884;2023-12-20T12:07:13;96370;;;5.4;83.5
68891;BME280;55932;48.702;8.884;2023-12-20T12:09:43;96360;;;5.3;83.5
68891;BME280;55932;48.702;8.884;2023-12-20T12:14:37;96350;;;5.3;83.5
68891;BME280;55932;48.702;8.884;2023-12-20T12:19:46;96350;;;5.5;83
68891;BME280;55932;48.702;8.884;2023-12-20T12:22:11;96350;;;5.4;83
68891;BME280;55932;48.702;8.884;2023-12-20T12:24:44;96350;;;5.4;83
68891;BME280;55932;48.702;8.884;2023-12-20T12:27:12;96350;;;5.5;83
68891;BME280;55932;48.702;8.884;2023-12-20T12:29:59;96340;;;5.6;83
68891;BME280;55932;48.702;8.884;2023-12-20T12:32:13;96330;;;5.6;83
68891;BME280;55932;48.702;8.884;2023-12-20T12:34:45;96340;;;5.6;82.5
68891;BME280;55932;48.702;8.884;2023-12-20T12:37:15;96340;;;5.7;83
68891;BME280;55932;48.702;8.884;2023-12-20T12:39:46;96330;;;6.1;82.5
68891;BME280;55932;48.702;8.884;2023-12-20T12:42:17;96320;;;8.5;79.5
68891;BME280;55932;48.702;8.884;2023-12-20T12:44:54;96320;;;9.4;78
68891;BME280;55932;48.702;8.884;2023-12-20T12:49:51;96320;;;8.3;79.5
68891;BME280;55932;48.702;8.884;2023-12-20T12:57:34;96320;;;8.2;79
68891;BME280;55932;48.702;8.884;2023-12-20T13:00:11;96330;;;7.4;80.5
68891;BME280;55932;48.702;8.884;2023-12-20T13:02:30;96330;;;8.3;80
68891;BME280;55932;48.702;8.884;2023-12-20T13:05:05;96320;;;8.4;79
68891;BME280;55932;48.702;8.884;2023-12-20T13:10:00;96320;;;7.9;79.5
68891;BME280;55932;48.702;8.884;2023-12-20T13:12:29;96310;;;7.1;80.5
68891;BME280;55932;48.702;8.884;2023-12-20T13:14:59;96300;;;7.6;80.5
68891;BME280;55932;48.702;8.884;2023-12-20T13:17:35;96300;;;7.7;80.5
68891;BME280;55932;48.702;8.884;2023-12-20T13:19:59;96310;;;7.9;80.5
68891;BME280;55932;48.702;8.884;2023-12-20T13:22:36;96310;;;7.5;80
68891;BME280;55932;48.702;8.884;2023-12-20T13:25:06;96330;;;6.8;81
68891;BME280;55932;48.702;8.884;2023-12-20T13:27:24;96330;;;6.5;81.5
68891;BME280;55932;48.702;8.884;2023-12-20T13:29:54;96320;;;6.4;81.5
68891;BME280;55932;48.702;8.884;2023-12-20T13:32:26;96320;;;6.6;81.5
68891;BME280;55932;48.702;8.884;2023-12-20T13:34:56;96310;;;6.6;81
68891;BME280;55932;48.702;8.884;2023-12-20T13:37:34;96320;;;6;82
68891;BME280;55932;48.702;8.884;2023-12-20T13:39:58;96330;;;5.6;82.5
68891;BME280;55932;48.702;8.884;2023-12-20T13:42:36;96330;;;5.5;83.5
68891;BME280;55932;48.702;8.884;2023-12-20T13:45:12;96330;;;5.4;83
68891;BME280;55932;48.702;8.884;2023-12-20T13:47:32;96330;;;5.3;83.5
68891;BME280;55932;48.702;8.884;2023-12-20T13:50:03;96320;;;5.3;83.5
68891;BME280;55932;48.702;8.884;2023-12-20T13:52:33;96320;;;5.7;83
68891;BME280;55932;48.702;8.884;2023-12-20T13:55:04;96320;;;5.6;82.5
68891;BME280;55932;48.702;8.884;2023-12-20T13:57:42;96310;;;5.5;83
68891;BME280;55932;48.702;8.884;2023-12-20T14:00:09;96330;;;5.5;83
68891;BME280;55932;48.702;8.884;2023-12-20T14:02:44;96330;;;5.3;83
68891;BME280;55932;48.702;8.884;2023-12-20T14:05:09;96330;;;5.1;83
68891;BME280;55932;48.702;8.884;2023-12-20T14:10:17;96330;;;4.8;83.5
68891;BME280;55932;48.702;8.884;2023-12-20T14:12:41;96320;;;4.7;83.5
68891;BME280;55932;48.702;8.884;2023-12-20T14:15:12;96310;;;4.7;83.5
68891;BME280;55932;48.702;8.884;2023-12-20T14:17:43;96310;;;4.6;83
68891;BME280;55932;48.702;8.884;2023-12-20T14:20:14;96310;;;4.6;83.5
68891;BME280;55932;48.702;8.884;2023-12-20T14:22:45;96310;;;4.6;83
68891;BME280;55932;48.702;8.884;2023-12-20T14:25:16;96300;;;4.6;82.5
68891;BME280;55932;48.702;8.884;2023-12-20T14:27:47;96300;;;4.4;82.5
68891;BME280;55932;48.702;8.884;2023-12-20T14:32:55;96300;;;4.2;82.5
68891;BME280;55932;48.702;8.884;2023-12-20T14:35:27;96290;;;4.2;82.5
68891;BME280;55932;48.702;8.884;2023-12-20T14:37:51;96300;;;4.3;82.5
68891;BME280;55932;48.702;8.884;2023-12-20T14:40:22;96310;;;4.3;82.5
68891;BME280;55932;48.702;8.884;2023-12-20T14:42:53;96300;;;4.3;82
68891;BME280;55932;48.702;8.884;2023-12-20T14:45:24;96300;;;4.3;82
68891;BME280;55932;48.702;8.884;2023-12-20T14:47:54;96310;;;4.2;82
68891;BME280;55932;48.702;8.884;2023-12-20T14:50:25;96310;;;4.1;82
68891;BME280;55932;48.702;8.884;2023-12-20T14:52:56;96310;;;4;82
68891;BME280;55932;48.702;8.884;2023-12-20T14:55:27;96310;;;3.9;82.5
68891;BME280;55932;48.702;8.884;2023-12-20T14:57:58;96310;;;3.8;82.5
68891;BME280;55932;48.702;8.884;2023-12-20T15:00:29;96310;;;3.6;82.5
68891;BME280;55932;48.702;8.884;2023-12-20T15:03:06;96310;;;3.5;82.5
68891;BME280;55932;48.702;8.884;2023-12-20T15:08:02;96310;;;3.4;82.5
68891;BME280;55932;48.702;8.884;2023-12-20T15:10:33;96310;;;3.2;82.5
68891;BME280;55932;48.702;8.884;2023-12-20T15:13:04;96320;;;3.2;83
68891;BME280;55932;48.702;8.884;2023-12-20T15:15:34;96320;;;3.3;83
68891;BME280;55932;48.702;8.884;2023-12-20T15:18:05;96320;;;3.3;82.5
68891;BME280;55932;48.702;8.884;2023-12-20T15:20:36;96320;;;3.3;82.5
68891;BME280;55932;48.702;8.884;2023-12-20T15:23:07;96320;;;3.3;82.5
68891;BME280;55932;48.702;8.884;2023-12-20T15:25:38;96310;;;3.2;82.5
68891;BME280;55932;48.702;8.884;2023-12-20T15:28:15;96320;;;3.2;82.5
68891;BME280;55932;48.702;8.884;2023-12-20T15:35:42;96310;;;3.2;82.5
68891;BME280;55932;48.702;8.884;2023-12-20T15:38:13;96320;;;3.2;82.5
68891;BME280;55932;48.702;8.884;2023-12-20T15:40:49;96320;;;3.3;82.5
68891;BME280;55932;48.702;8.884;2023-12-20T15:43:15;96320;;;3.3;82.5
68891;BME280;55932;48.702;8.884;2023-12-20T15:48:16;96320;;;3.3;82.5
68891;BME280;55932;48.702;8.884;2023-12-20T15:50:55;96310;;;3.3;82.5
68891;BME280;55932;48.702;8.884;2023-12-20T15:53:19;96310;;;3.3;82.5
68891;BME280;55932;48.702;8.884;2023-12-20T15:55:49;96310;;;3.2;82.5
68891;BME280;55932;48.702;8.884;2023-12-20T15:58:20;96310;;;3.2;82.5
68891;BME280;55932;48.702;8.884;2023-12-20T16:00:51;96310;;;3.3;82.5
68891;BME280;55932;48.702;8.884;2023-12-20T16:03:22;96310;;;3.3;82.5
68891;BME280;55932;48.702;8.884;2023-12-20T16:05:53;96310;;;3.3;82.5
68891;BME280;55932;48.702;8.884;2023-12-20T16:08:24;96320;;;3.2;82
68891;BME280;55932;48.702;8.884;2023-12-20T16:11:01;96330;;;3.2;82.5
68891;BME280;55932;48.702;8.884;2023-12-20T16:18:28;96320;;;3.3;82
68891;BME280;55932;48.702;8.884;2023-12-20T16:21:00;96310;;;3.3;82
68891;BME280;55932;48.702;8.884;2023-12-20T16:23:37;96310;;;3.2;82
68891;BME280;55932;48.702;8.884;2023-12-20T16:26:01;96320;;;3.1;82.5
68891;BME280;55932;48.702;8.884;2023-12-20T16:28:32;96330;;;3.1;82.5
68891;BME280;55932;48.702;8.884;2023-12-20T16:31:09;96320;;;3.1;82.5
68891;BME280;55932;48.702;8.884;2023-12-20T16:33:34;96320;;;3.2;82
68891;BME280;55932;48.702;8.884;2023-12-20T16:36:11;96310;;;3;82
68891;BME280;55932;48.702;8.884;2023-12-20T16:38:36;96310;;;2.9;82
68891;BME280;55932;48.702;8.884;2023-12-20T16:41:13;96310;;;2.9;82
68891;BME280;55932;48.702;8.884;2023-12-20T16:43:47;96310;;;2.9;82
68891;BME280;55932;48.702;8.884;2023-12-20T16:46:09;96310;;;2.8;82
68891;BME280;55932;48.702;8.884;2023-12-20T16:48:39;96310;;;2.6;82
68891;BME280;55932;48.702;8.884;2023-12-20T16:51:10;96310;;;2.6;82
68891;BME280;55932;48.702;8.884;2023-12-20T16:53:48;96310;;;2.6;82
68891;BME280;55932;48.702;8.884;2023-12-20T16:56:22;96310;;;2.6;82
68891;BME280;55932;48.702;8.884;2023-12-20T16:58:43;96320;;;2.7;82
68891;BME280;55932;48.702;8.884;2023-12-20T17:01:14;96320;;;2.8;82
68891;BME280;55932;48.702;8.884;2023-12-20T17:03:45;96320;;;2.7;82
68891;BME280;55932;48.702;8.884;2023-12-20T17:06:17;96320;;;2.8;82
68891;BME280;55932;48.702;8.884;2023-12-20T17:08:48;96320;;;2.8;82
68891;BME280;55932;48.702;8.884;2023-12-20T17:11:25;96310;;;2.8;82
68891;BME280;55932;48.702;8.884;2023-12-20T17:16:20;96310;;;2.9;82
68891;BME280;55932;48.702;8.884;2023-12-20T17:18:51;96310;;;2.9;82
68891;BME280;55932;48.702;8.884;2023-12-20T17:21:22;96310;;;3;82
68891;BME280;55932;48.702;8.884;2023-12-20T17:23:53;96310;;;3;82
68891;BME280;55932;48.702;8.884;2023-12-20T17:26:24;96310;;;3;82
68891;BME280;55932;48.702;8.884;2023-12-20T17:28:55;96300;;;3;82
68891;BME280;55932;48.702;8.884;2023-12-20T17:31:26;96310;;;3;82
68891;BME280;55932;48.702;8.884;2023-12-20T17:34:04;96310;;;3;82
68891;BME280;55932;48.702;8.884;2023-12-20T17:36:28;96300;;;3;82
68891;BME280;55932;48.702;8.884;2023-12-20T17:39:06;96300;;;2.9;82
68891;BME280;55932;48.702;8.884;2023-12-20T17:44:02;96310;;;3;82
68891;BME280;55932;48.702;8.884;2023-12-20T17:46:32;96310;;;2.9;82
68891;BME280;55932;48.702;8.884;2023-12-20T17:49:07;96300;;;2.8;82
68891;BME280;55932;48.702;8.884;2023-12-20T17:51:34;96310;;;2.9;82
68891;BME280;55932;48.702;8.884;2023-12-20T17:54:11;96310;;;3;82
68891;BME280;55932;48.702;8.884;2023-12-20T17:56:36;96300;;;3.1;82
68891;BME280;55932;48.702;8.884;2023-12-20T17:59:07;96290;;;3.2;82
68891;BME280;55932;48.702;8.884;2023-12-20T18:01:38;96310;;;3.2;82
68891;BME280;55932;48.702;8.884;2023-12-20T18:04:08;96310;;;3.3;82
68891;BME280;55932;48.702;8.884;2023-12-20T18:06:48;96300;;;3.3;82
68891;BME280;55932;48.702;8.884;2023-12-20T18:11:42;96290;;;3.3;82
68891;BME280;55932;48.702;8.884;2023-12-20T18:14:14;96290;;;3.4;82
68891;BME280;55932;48.702;8.884;2023-12-20T18:16:44;96300;;;3.4;82
68891;BME280;55932;48.702;8.884;2023-12-20T18:19:15;96310;;;3.4;82
68891;BME280;55932;48.702;8.884;2023-12-20T18:21:52;96310;;;3.4;82